| time (UTC) | temp F | wind direction | speed MPH | gust MPH | rain 1hr in | rain 24hr in | rain mn in | humidity % | barometer mb |
| 20260906173203 | 63 | 50 | 7.0 | 0.0 | 0.00 | 0.00 | 0.00 | 48 | 1026.0 |
| 20260906171801 | 64 | 30 | 5.0 | 0.0 | 0.00 | 0.00 | 0.00 | 42 | |
| 20260906170409 | 64 | 50 | 5.0 | 0.0 | 0.00 | 0.00 | 0.00 | 45 | 1026.0 |
| 20260906163203 | 66 | 20 | 7.0 | 0.0 | 0.00 | 0.00 | 0.00 | 42 | 1026.0 |
| 20260906162205 | 68 | 360 | 7.0 | 0.0 | 0.00 | 0.00 | 0.00 | 37 | |
| 20260906160203 | 68 | 30 | 6.0 | 0.0 | 0.00 | 0.00 | 0.00 | 37 | 1026.0 |
| 20260906153202 | 68 | 0 | 5.0 | 0.0 | 0.00 | 0.00 | 0.00 | 40 | 1026.0 |
| 20260906151801 | 68 | 20 | 7.0 | 0.0 | 0.00 | 0.00 | 0.00 | 40 | |
| 20260906150203 | 68 | 340 | 6.0 | 0.0 | 0.00 | 0.00 | 0.00 | 37 | 1027.0 |
| 20260906143202 | 68 | 310 | 7.0 | 0.0 | 0.00 | 0.00 | 0.00 | 37 | 1027.0 |
| 20260906141801 | 68 | 280 | 7.0 | 0.0 | 0.00 | 0.00 | 0.00 | 37 | |
| 20260906140202 | 68 | 330 | 7.0 | 0.0 | 0.00 | 0.00 | 0.00 | 40 | 1027.0 |
| 20260906133203 | 68 | 320 | 7.0 | 0.0 | 0.00 | 0.00 | 0.00 | 37 | 1027.0 |
| 20260906132103 | 66 | 300 | 9.0 | 0.0 | 0.00 | 0.00 | 0.00 | 39 | |
| 20260906130203 | 68 | 290 | 8.0 | 0.0 | 0.00 | 0.00 | 0.00 | 40 | 1027.0 |
| 20260906123203 | 66 | 310 | 7.0 | 0.0 | 0.00 | 0.00 | 0.00 | 42 | 1027.0 |
| 20260906121801 | 66 | 320 | 7.0 | 0.0 | 0.00 | 0.00 | 0.00 | 42 | |
| 20260906120203 | 64 | 280 | 7.0 | 0.0 | 0.00 | 0.00 | 0.00 | 45 | 1027.0 |
| 20260906113203 | 64 | 270 | 9.0 | 0.0 | 0.00 | 0.00 | 0.00 | 45 | 1027.0 |
| 20260906111803 | 64 | 290 | 7.0 | 0.0 | 0.00 | 0.00 | 0.00 | 45 | |
| 20260906110202 | 63 | 270 | 7.0 | 0.0 | 0.00 | 0.00 | 0.00 | 48 | 1028.0 |
| 20260906103203 | 63 | 300 | 7.0 | 0.0 | 0.00 | 0.00 | 0.00 | 48 | 1028.0 |
| 20260906102205 | 63 | 260 | 7.0 | 0.0 | 0.00 | 0.00 | 0.00 | 48 | |
| 20260906100203 | 63 | 270 | 6.0 | 0.0 | 0.00 | 0.00 | 0.00 | 51 | 1028.0 |
| 20260906093203 | 61 | 280 | 10.0 | 0.0 | 0.00 | 0.00 | 0.00 | 51 | 1028.0 |
| 20260906091802 | 61 | 300 | 9.0 | 0.0 | 0.00 | 0.00 | 0.00 | 51 | |
| 20260906090202 | 61 | 280 | 10.0 | 0.0 | 0.00 | 0.00 | 0.00 | 51 | 1028.0 |
| 20260906083202 | 61 | 300 | 10.0 | 0.0 | 0.00 | 0.00 | 0.00 | 55 | 1028.0 |
| 20260906081804 | 59 | 300 | 12.0 | 0.0 | 0.00 | 0.00 | 0.00 | 58 | |
| 20260906080203 | 59 | 300 | 10.0 | 0.0 | 0.00 | 0.00 | 0.00 | 58 | 1027.0 |
| 20260906073203 | 59 | 300 | 12.0 | 0.0 | 0.00 | 0.00 | 0.00 | 62 | 1027.0 |
| 20260906072103 | 57 | 280 | 9.0 | 0.0 | 0.00 | 0.00 | 0.00 | 67 | |
| 20260906070203 | 57 | 290 | 10.0 | 0.0 | 0.00 | 0.00 | 0.00 | 67 | 1027.0 |
| 20260906063203 | 57 | 270 | 8.0 | 0.0 | 0.00 | 0.00 | 0.00 | 71 | 1027.0 |
| 20260906061802 | 55 | 260 | 7.0 | 0.0 | 0.00 | 0.00 | 0.00 | 76 | |
| 20260906060203 | 55 | 250 | 6.0 | 0.0 | 0.00 | 0.00 | 0.00 | 76 | 1026.0 |
| 20260906053202 | 54 | 240 | 9.0 | 0.0 | 0.00 | 0.00 | 0.00 | 81 | 1026.0 |
| 20260906051801 | 52 | 250 | 7.0 | 0.0 | 0.00 | 0.00 | 0.00 | 81 | |
| 20260906050204 | 52 | 240 | 9.0 | 0.0 | 0.00 | 0.00 | 0.00 | 81 | 1026.0 |
| 20260906043202 | 52 | 230 | 9.0 | 0.0 | 0.00 | 0.00 | 0.00 | 81 | 1026.0 |
| 20260906042203 | 50 | 240 | 7.0 | 0.0 | 0.00 | 0.00 | 0.00 | 87 | |
| 20260906040201 | 50 | 230 | 7.0 | 0.0 | 0.00 | 0.00 | 0.00 | 87 | 1025.0 |
| 20260906033202 | 52 | 280 | 7.0 | 0.0 | 0.00 | 0.00 | 0.00 | 81 | 1025.0 |
| 20260906031801 | 55 | 290 | 9.0 | 0.0 | 0.00 | 0.00 | 0.00 | 71 | |
| 20260906030203 | 54 | 270 | 10.0 | 0.0 | 0.00 | 0.00 | 0.00 | 76 | 1025.0 |
| 20260906023203 | 54 | 250 | 9.0 | 0.0 | 0.00 | 0.00 | 0.00 | 76 | 1025.0 |
| 20260906021801 | 54 | 240 | 7.0 | 0.0 | 0.00 | 0.00 | 0.00 | 76 | |
| 20260906020203 | 54 | 240 | 8.0 | 0.0 | 0.00 | 0.00 | 0.00 | 76 | 1025.0 |
| 20260906013203 | 52 | 240 | 7.0 | 0.0 | 0.00 | 0.00 | 0.00 | 81 | 1024.0 |
| 20260906012102 | 52 | 240 | 7.0 | 0.0 | 0.00 | 0.00 | 0.00 | 81 | |
| 20260906010203 | 52 | 270 | 5.0 | 0.0 | 0.00 | 0.00 | 0.00 | 81 | 1024.0 |
| 20260906003202 | 55 | 280 | 6.0 | 0.0 | 0.00 | 0.00 | 0.00 | 71 | 1024.0 |
| 20260906001802 | 54 | 240 | 7.0 | 0.0 | 0.00 | 0.00 | 0.00 | 76 | |
| 20260906000204 | 54 | 250 | 7.0 | 0.0 | 0.00 | 0.00 | 0.00 | 76 | 1024.0 |
| 20260905233202 | 55 | 280 | 7.0 | 0.0 | 0.00 | 0.00 | 0.00 | 71 | 1024.0 |
| 20260905231801 | 57 | 290 | 7.0 | 0.0 | 0.00 | 0.00 | 0.00 | 67 | |
| 20260905230203 | 57 | 280 | 9.0 | 0.0 | 0.00 | 0.00 | 0.00 | 67 | 1024.0 |
| 20260905223202 | 57 | 270 | 8.0 | 0.0 | 0.00 | 0.00 | 0.00 | 62 | 1024.0 |
| 20260905222204 | 57 | 280 | 7.0 | 0.0 | 0.00 | 0.00 | 0.00 | 62 | |
| 20260905220203 | 57 | 270 | 7.0 | 0.0 | 0.00 | 0.00 | 0.00 | 62 | 1024.0 |
| 20260905213202 | 59 | 270 | 9.0 | 0.0 | 0.00 | 0.00 | 0.00 | 58 | 1023.0 |
| 20260905211800 | 59 | 260 | 9.0 | 0.0 | 0.00 | 0.00 | 0.00 | 58 | |
| 20260905210202 | 59 | 270 | 8.0 | 0.0 | 0.00 | 0.00 | 0.00 | 58 | 1023.0 |
| 20260905210002 | 61 | 250 | 9.0 | 0.0 | 0.00 | 0.00 | 0.00 | 55 | 1023.0 |
| 20260905205102 | 61 | 250 | 9.0 | 0.0 | 0.00 | 0.00 | 0.00 | 55 | 1023.0 |
| 20260905204702 | 61 | 250 | 9.0 | 0.0 | 0.00 | 0.00 | 0.00 | 55 | 1023.0 |
| 20260905204102 | 61 | 250 | 9.0 | 0.0 | 0.00 | 0.00 | 0.00 | 55 | 1023.0 |
| 20260905203203 | 61 | 250 | 9.0 | 0.0 | 0.00 | 0.00 | 0.00 | 55 | 1023.0 |
| 20260905201802 | 61 | 260 | 9.0 | 0.0 | 0.00 | 0.00 | 0.00 | 55 | |
| 20260905200903 | 61 | 240 | 9.0 | 0.0 | 0.00 | 0.00 | 0.00 | 55 | 1022.0 |
| 20260905200303 | 61 | 240 | 9.0 | 0.0 | 0.00 | 0.00 | 0.00 | 55 | 1022.0 |
| 20260905195903 | 61 | 260 | 9.0 | 0.0 | 0.00 | 0.00 | 0.00 | 55 | 1022.0 |
| 20260905195203 | 61 | 260 | 9.0 | 0.0 | 0.00 | 0.00 | 0.00 | 55 | 1022.0 |
| 20260905194103 | 61 | 260 | 9.0 | 0.0 | 0.00 | 0.00 | 0.00 | 55 | 1022.0 |
| 20260905193409 | 61 | 260 | 9.0 | 0.0 | 0.00 | 0.00 | 0.00 | 55 | 1022.0 |
| 20260905193203 | 61 | 260 | 9.0 | 0.0 | 0.00 | 0.00 | 0.00 | 55 | 1022.0 |
| 20260905192703 | 63 | 270 | 10.0 | 0.0 | 0.00 | 0.00 | 0.00 | 55 | 1022.0 |
| 20260905192110 | 63 | 270 | 9.0 | 0.0 | 0.00 | 0.00 | 0.00 | 51 | |
| 20260905192103 | 63 | 270 | 10.0 | 0.0 | 0.00 | 0.00 | 0.00 | 55 | 1022.0 |
| 20260905191603 | 63 | 270 | 10.0 | 0.0 | 0.00 | 0.00 | 0.00 | 55 | 1022.0 |
| 20260905181819 | 64 | 290 | 9.0 | 0.0 | 0.00 | 0.00 | 0.00 | 48 | |
| 20260905181302 | 64 | 280 | 9.0 | 0.0 | 0.00 | 0.00 | 0.00 | 48 | 1021.0 |
| 20260905181102 | 64 | 280 | 9.0 | 0.0 | 0.00 | 0.00 | 0.00 | 48 | 1021.0 |
| 20260905180703 | 64 | 280 | 9.0 | 0.0 | 0.00 | 0.00 | 0.00 | 48 | 1021.0 |
| 20260905180303 | 64 | 280 | 9.0 | 0.0 | 0.00 | 0.00 | 0.00 | 48 | 1021.0 |
| 20260905180103 | 66 | 290 | 10.0 | 0.0 | 0.00 | 0.00 | 0.00 | 45 | 1021.0 |
| 20260905175403 | 66 | 290 | 10.0 | 0.0 | 0.00 | 0.00 | 0.00 | 45 | 1021.0 |
| 20260905175203 | 66 | 290 | 10.0 | 0.0 | 0.00 | 0.00 | 0.00 | 45 | 1021.0 |
| 20260905174702 | 66 | 290 | 10.0 | 0.0 | 0.00 | 0.00 | 0.00 | 45 | 1021.0 |